sensor_id;sensor_type;location;lat;lon;timestamp;temperature;humidity
21267;DHT22;10791;53.108;18.326;2023-07-31T00:04:53;18.10;99.90
21267;DHT22;10791;53.108;18.326;2023-07-31T00:09:57;18.00;99.90
21267;DHT22;10791;53.108;18.326;2023-07-31T00:15:01;18.00;99.90
21267;DHT22;10791;53.108;18.326;2023-07-31T00:20:05;17.90;99.90
21267;DHT22;10791;53.108;18.326;2023-07-31T00:25:09;17.80;99.90
21267;DHT22;10791;53.108;18.326;2023-07-31T00:30:12;17.80;99.90
21267;DHT22;10791;53.108;18.326;2023-07-31T00:35:16;17.70;99.90
21267;DHT22;10791;53.108;18.326;2023-07-31T00:40:19;17.70;99.90
21267;DHT22;10791;53.108;18.326;2023-07-31T00:45:23;17.60;99.90
21267;DHT22;10791;53.108;18.326;2023-07-31T00:50:27;17.60;99.90
21267;DHT22;10791;53.108;18.326;2023-07-31T00:55:31;17.60;99.90
21267;DHT22;10791;53.108;18.326;2023-07-31T01:00:34;17.60;99.90
21267;DHT22;10791;53.108;18.326;2023-07-31T01:06:04;17.60;99.90
21267;DHT22;10791;53.108;18.326;2023-07-31T01:11:30;17.60;99.90
21267;DHT22;10791;53.108;18.326;2023-07-31T01:16:33;17.60;99.90
21267;DHT22;10791;53.108;18.326;2023-07-31T01:27:10;17.30;99.90
21267;DHT22;10791;53.108;18.326;2023-07-31T01:32:18;17.30;99.90
21267;DHT22;10791;53.108;18.326;2023-07-31T01:37:28;17.20;99.90
21267;DHT22;10791;53.108;18.326;2023-07-31T01:42:31;17.10;99.90
21267;DHT22;10791;53.108;18.326;2023-07-31T01:47:35;17.10;99.90
21267;DHT22;10791;53.108;18.326;2023-07-31T01:52:38;17.00;99.90
21267;DHT22;10791;53.108;18.326;2023-07-31T01:57:41;17.00;99.90
21267;DHT22;10791;53.108;18.326;2023-07-31T02:02:45;17.00;99.90
21267;DHT22;10791;53.108;18.326;2023-07-31T02:07:49;16.90;99.90
21267;DHT22;10791;53.108;18.326;2023-07-31T02:12:52;16.90;99.90
21267;DHT22;10791;53.108;18.326;2023-07-31T02:17:55;16.80;99.90
21267;DHT22;10791;53.108;18.326;2023-07-31T02:22:59;16.80;99.90
21267;DHT22;10791;53.108;18.326;2023-07-31T02:28:02;16.70;99.90
21267;DHT22;10791;53.108;18.326;2023-07-31T02:33:05;16.70;99.90
21267;DHT22;10791;53.108;18.326;2023-07-31T02:38:09;16.60;99.90
21267;DHT22;10791;53.108;18.326;2023-07-31T02:43:12;16.50;99.90
21267;DHT22;10791;53.108;18.326;2023-07-31T02:48:16;16.40;99.90
21267;DHT22;10791;53.108;18.326;2023-07-31T02:53:19;16.30;99.90
21267;DHT22;10791;53.108;18.326;2023-07-31T02:58:22;16.20;99.90
21267;DHT22;10791;53.108;18.326;2023-07-31T03:03:26;16.20;99.90
21267;DHT22;10791;53.108;18.326;2023-07-31T03:08:29;16.10;99.90
21267;DHT22;10791;53.108;18.326;2023-07-31T03:13:33;16.00;99.90
21267;DHT22;10791;53.108;18.326;2023-07-31T03:18:36;15.90;99.90
21267;DHT22;10791;53.108;18.326;2023-07-31T03:23:39;15.90;99.90
21267;DHT22;10791;53.108;18.326;2023-07-31T03:28:43;15.90;99.90
21267;DHT22;10791;53.108;18.326;2023-07-31T03:33:46;15.80;99.90
21267;DHT22;10791;53.108;18.326;2023-07-31T03:38:51;15.90;99.90
21267;DHT22;10791;53.108;18.326;2023-07-31T03:43:55;15.90;99.90
21267;DHT22;10791;53.108;18.326;2023-07-31T03:49:01;16.00;99.90
21267;DHT22;10791;53.108;18.326;2023-07-31T03:54:05;16.10;99.90
21267;DHT22;10791;53.108;18.326;2023-07-31T03:59:11;16.10;99.90
21267;DHT22;10791;53.108;18.326;2023-07-31T04:04:14;16.20;99.90
21267;DHT22;10791;53.108;18.326;2023-07-31T04:09:17;16.30;99.90
21267;DHT22;10791;53.108;18.326;2023-07-31T04:14:21;16.30;99.90
21267;DHT22;10791;53.108;18.326;2023-07-31T04:19:24;16.40;99.90
21267;DHT22;10791;53.108;18.326;2023-07-31T04:24:27;16.50;99.90
21267;DHT22;10791;53.108;18.326;2023-07-31T04:29:31;16.50;99.90
21267;DHT22;10791;53.108;18.326;2023-07-31T04:34:34;16.40;99.90
21267;DHT22;10791;53.108;18.326;2023-07-31T04:39:37;16.40;99.90
21267;DHT22;10791;53.108;18.326;2023-07-31T04:44:40;16.40;99.90
21267;DHT22;10791;53.108;18.326;2023-07-31T04:49:44;16.40;99.90
21267;DHT22;10791;53.108;18.326;2023-07-31T04:54:47;16.50;99.90
21267;DHT22;10791;53.108;18.326;2023-07-31T04:59:50;16.60;99.90
21267;DHT22;10791;53.108;18.326;2023-07-31T05:04:54;16.70;99.90
21267;DHT22;10791;53.108;18.326;2023-07-31T05:09:57;16.80;99.90
21267;DHT22;10791;53.108;18.326;2023-07-31T05:15:00;16.90;99.90
21267;DHT22;10791;53.108;18.326;2023-07-31T05:20:04;16.90;99.90
21267;DHT22;10791;53.108;18.326;2023-07-31T05:25:08;17.00;99.90
21267;DHT22;10791;53.108;18.326;2023-07-31T05:30:11;17.10;99.90
21267;DHT22;10791;53.108;18.326;2023-07-31T05:35:14;17.20;99.90
21267;DHT22;10791;53.108;18.326;2023-07-31T05:40:18;17.40;99.90
21267;DHT22;10791;53.108;18.326;2023-07-31T05:45:21;17.50;99.90
21267;DHT22;10791;53.108;18.326;2023-07-31T05:50:25;17.50;99.90
21267;DHT22;10791;53.108;18.326;2023-07-31T05:55:29;17.70;99.90
21267;DHT22;10791;53.108;18.326;2023-07-31T06:00:32;17.80;99.90
21267;DHT22;10791;53.108;18.326;2023-07-31T06:05:35;17.90;99.90
21267;DHT22;10791;53.108;18.326;2023-07-31T06:10:39;18.00;99.90
21267;DHT22;10791;53.108;18.326;2023-07-31T06:15:43;18.10;99.90
21267;DHT22;10791;53.108;18.326;2023-07-31T06:20:46;18.10;99.90
21267;DHT22;10791;53.108;18.326;2023-07-31T06:25:50;18.30;99.90
21267;DHT22;10791;53.108;18.326;2023-07-31T06:30:54;18.40;99.90
21267;DHT22;10791;53.108;18.326;2023-07-31T06:35:58;18.60;99.90
21267;DHT22;10791;53.108;18.326;2023-07-31T06:41:01;18.80;99.90
21267;DHT22;10791;53.108;18.326;2023-07-31T06:46:08;19.10;99.90
21267;DHT22;10791;53.108;18.326;2023-07-31T06:51:12;19.30;99.90
21267;DHT22;10791;53.108;18.326;2023-07-31T06:56:15;19.50;99.90
21267;DHT22;10791;53.108;18.326;2023-07-31T07:01:19;19.70;99.90
21267;DHT22;10791;53.108;18.326;2023-07-31T07:06:22;19.80;99.90
21267;DHT22;10791;53.108;18.326;2023-07-31T07:11:26;19.90;99.90
21267;DHT22;10791;53.108;18.326;2023-07-31T07:16:30;19.80;99.90
21267;DHT22;10791;53.108;18.326;2023-07-31T07:21:34;19.80;99.90
21267;DHT22;10791;53.108;18.326;2023-07-31T07:26:37;19.90;99.90
21267;DHT22;10791;53.108;18.326;2023-07-31T07:31:42;20.00;99.90
21267;DHT22;10791;53.108;18.326;2023-07-31T07:36:45;20.00;99.90
21267;DHT22;10791;53.108;18.326;2023-07-31T07:41:48;20.10;99.90
21267;DHT22;10791;53.108;18.326;2023-07-31T07:46:52;20.10;99.90
21267;DHT22;10791;53.108;18.326;2023-07-31T07:51:55;20.10;99.90
21267;DHT22;10791;53.108;18.326;2023-07-31T07:56:59;20.30;99.90
21267;DHT22;10791;53.108;18.326;2023-07-31T08:02:03;20.40;99.90
21267;DHT22;10791;53.108;18.326;2023-07-31T08:07:06;20.60;99.90
21267;DHT22;10791;53.108;18.326;2023-07-31T08:12:10;20.70;99.90
21267;DHT22;10791;53.108;18.326;2023-07-31T08:17:13;21.10;99.90
21267;DHT22;10791;53.108;18.326;2023-07-31T08:22:17;21.40;99.90
21267;DHT22;10791;53.108;18.326;2023-07-31T08:27:20;21.70;99.90
21267;DHT22;10791;53.108;18.326;2023-07-31T08:32:24;21.90;99.90
21267;DHT22;10791;53.108;18.326;2023-07-31T08:37:28;22.00;99.90
21267;DHT22;10791;53.108;18.326;2023-07-31T08:42:32;22.00;99.90
21267;DHT22;10791;53.108;18.326;2023-07-31T08:47:36;22.00;99.90
21267;DHT22;10791;53.108;18.326;2023-07-31T08:52:40;22.10;99.90
21267;DHT22;10791;53.108;18.326;2023-07-31T08:57:43;22.10;99.90
21267;DHT22;10791;53.108;18.326;2023-07-31T09:02:57;22.10;99.90
21267;DHT22;10791;53.108;18.326;2023-07-31T09:08:04;22.10;99.90
21267;DHT22;10791;53.108;18.326;2023-07-31T09:13:09;22.20;99.90
21267;DHT22;10791;53.108;18.326;2023-07-31T09:18:14;22.10;99.90
21267;DHT22;10791;53.108;18.326;2023-07-31T09:23:21;22.20;99.90
21267;DHT22;10791;53.108;18.326;2023-07-31T09:28:31;22.30;99.90
21267;DHT22;10791;53.108;18.326;2023-07-31T09:33:54;22.50;99.90
21267;DHT22;10791;53.108;18.326;2023-07-31T09:39:03;22.50;99.90
21267;DHT22;10791;53.108;18.326;2023-07-31T09:44:07;22.60;99.90
21267;DHT22;10791;53.108;18.326;2023-07-31T09:49:12;22.60;99.90
21267;DHT22;10791;53.108;18.326;2023-07-31T09:54:16;22.60;99.90
21267;DHT22;10791;53.108;18.326;2023-07-31T09:59:20;22.60;99.90
21267;DHT22;10791;53.108;18.326;2023-07-31T10:04:28;22.50;99.90
21267;DHT22;10791;53.108;18.326;2023-07-31T10:09:33;22.40;99.90
21267;DHT22;10791;53.108;18.326;2023-07-31T10:14:39;22.10;99.90
21267;DHT22;10791;53.108;18.326;2023-07-31T10:19:44;21.80;99.90
21267;DHT22;10791;53.108;18.326;2023-07-31T10:24:48;21.40;99.90
21267;DHT22;10791;53.108;18.326;2023-07-31T10:29:55;20.90;99.90
21267;DHT22;10791;53.108;18.326;2023-07-31T10:35:03;20.10;99.90
21267;DHT22;10791;53.108;18.326;2023-07-31T10:40:15;19.60;99.90
21267;DHT22;10791;53.108;18.326;2023-07-31T10:45:41;19.60;99.90
21267;DHT22;10791;53.108;18.326;2023-07-31T10:50:49;19.60;99.90
21267;DHT22;10791;53.108;18.326;2023-07-31T10:56:01;19.60;99.90
21267;DHT22;10791;53.108;18.326;2023-07-31T11:01:06;19.70;99.90
21267;DHT22;10791;53.108;18.326;2023-07-31T11:06:09;19.70;99.90
21267;DHT22;10791;53.108;18.326;2023-07-31T11:11:18;19.80;99.90
21267;DHT22;10791;53.108;18.326;2023-07-31T11:16:23;19.90;99.90
21267;DHT22;10791;53.108;18.326;2023-07-31T11:21:28;20.10;99.90
21267;DHT22;10791;53.108;18.326;2023-07-31T11:26:31;20.10;99.90
21267;DHT22;10791;53.108;18.326;2023-07-31T11:31:44;20.00;99.90
21267;DHT22;10791;53.108;18.326;2023-07-31T11:36:55;19.90;99.90
21267;DHT22;10791;53.108;18.326;2023-07-31T11:41:59;19.80;99.90
21267;DHT22;10791;53.108;18.326;2023-07-31T11:47:03;19.80;99.90
21267;DHT22;10791;53.108;18.326;2023-07-31T11:52:07;19.70;99.90
21267;DHT22;10791;53.108;18.326;2023-07-31T11:57:10;19.80;99.90
21267;DHT22;10791;53.108;18.326;2023-07-31T12:02:14;19.70;99.90
21267;DHT22;10791;53.108;18.326;2023-07-31T12:07:18;19.70;99.90
21267;DHT22;10791;53.108;18.326;2023-07-31T12:12:25;20.30;99.90
21267;DHT22;10791;53.108;18.326;2023-07-31T12:17:28;20.70;99.90
21267;DHT22;10791;53.108;18.326;2023-07-31T12:22:32;20.90;99.90
21267;DHT22;10791;53.108;18.326;2023-07-31T12:27:35;20.90;99.90
21267;DHT22;10791;53.108;18.326;2023-07-31T12:32:40;20.90;99.90
21267;DHT22;10791;53.108;18.326;2023-07-31T12:37:43;20.50;99.90
21267;DHT22;10791;53.108;18.326;2023-07-31T12:42:47;20.40;99.90
21267;DHT22;10791;53.108;18.326;2023-07-31T12:47:50;20.20;99.90
21267;DHT22;10791;53.108;18.326;2023-07-31T12:52:54;20.00;99.90
21267;DHT22;10791;53.108;18.326;2023-07-31T12:57:58;19.70;99.90
21267;DHT22;10791;53.108;18.326;2023-07-31T13:03:03;19.60;99.90
21267;DHT22;10791;53.108;18.326;2023-07-31T13:08:11;19.50;99.90
21267;DHT22;10791;53.108;18.326;2023-07-31T13:13:15;19.50;99.90
21267;DHT22;10791;53.108;18.326;2023-07-31T13:18:18;19.50;99.90
21267;DHT22;10791;53.108;18.326;2023-07-31T13:23:22;19.50;99.90
21267;DHT22;10791;53.108;18.326;2023-07-31T13:28:30;19.50;99.90
21267;DHT22;10791;53.108;18.326;2023-07-31T13:33:33;19.50;99.90
21267;DHT22;10791;53.108;18.326;2023-07-31T13:38:39;19.50;99.90
21267;DHT22;10791;53.108;18.326;2023-07-31T13:43:43;19.50;99.90
21267;DHT22;10791;53.108;18.326;2023-07-31T13:48:46;19.50;99.90
21267;DHT22;10791;53.108;18.326;2023-07-31T13:53:50;19.50;99.90
21267;DHT22;10791;53.108;18.326;2023-07-31T13:58:53;19.60;99.90
21267;DHT22;10791;53.108;18.326;2023-07-31T14:03:57;19.70;99.90
21267;DHT22;10791;53.108;18.326;2023-07-31T14:09:00;19.90;99.90
21267;DHT22;10791;53.108;18.326;2023-07-31T14:14:03;19.90;99.90
21267;DHT22;10791;53.108;18.326;2023-07-31T14:19:07;19.90;99.90
21267;DHT22;10791;53.108;18.326;2023-07-31T14:24:11;19.80;99.90
21267;DHT22;10791;53.108;18.326;2023-07-31T14:29:15;19.70;99.90
21267;DHT22;10791;53.108;18.326;2023-07-31T14:34:19;19.70;99.90
21267;DHT22;10791;53.108;18.326;2023-07-31T14:39:22;19.70;99.90
21267;DHT22;10791;53.108;18.326;2023-07-31T14:44:26;19.60;99.90
21267;DHT22;10791;53.108;18.326;2023-07-31T14:49:29;19.50;99.90
21267;DHT22;10791;53.108;18.326;2023-07-31T14:54:33;19.50;99.90
21267;DHT22;10791;53.108;18.326;2023-07-31T14:59:36;19.80;99.90
21267;DHT22;10791;53.108;18.326;2023-07-31T15:04:40;19.90;99.90
21267;DHT22;10791;53.108;18.326;2023-07-31T15:09:44;19.90;99.90
21267;DHT22;10791;53.108;18.326;2023-07-31T15:14:48;19.90;99.90
21267;DHT22;10791;53.108;18.326;2023-07-31T15:19:52;19.80;99.90
21267;DHT22;10791;53.108;18.326;2023-07-31T15:24:56;19.70;99.90
21267;DHT22;10791;53.108;18.326;2023-07-31T15:29:59;19.60;99.90
21267;DHT22;10791;53.108;18.326;2023-07-31T15:35:02;19.60;99.90
21267;DHT22;10791;53.108;18.326;2023-07-31T15:40:07;19.60;99.90
21267;DHT22;10791;53.108;18.326;2023-07-31T15:45:11;20.80;99.90
21267;DHT22;10791;53.108;18.326;2023-07-31T15:50:14;21.20;99.90
21267;DHT22;10791;53.108;18.326;2023-07-31T15:55:17;21.10;99.90
21267;DHT22;10791;53.108;18.326;2023-07-31T16:00:21;21.00;99.90
21267;DHT22;10791;53.108;18.326;2023-07-31T16:05:24;20.90;99.90
21267;DHT22;10791;53.108;18.326;2023-07-31T16:10:28;20.70;99.90
21267;DHT22;10791;53.108;18.326;2023-07-31T16:15:31;20.50;99.90
21267;DHT22;10791;53.108;18.326;2023-07-31T16:20:35;20.30;99.90
21267;DHT22;10791;53.108;18.326;2023-07-31T16:25:38;20.30;99.90
21267;DHT22;10791;53.108;18.326;2023-07-31T16:30:42;20.20;99.90
21267;DHT22;10791;53.108;18.326;2023-07-31T16:35:46;20.10;99.90
21267;DHT22;10791;53.108;18.326;2023-07-31T16:40:49;20.00;99.90
21267;DHT22;10791;53.108;18.326;2023-07-31T16:45:53;20.00;99.90
21267;DHT22;10791;53.108;18.326;2023-07-31T16:50:57;20.00;99.90
21267;DHT22;10791;53.108;18.326;2023-07-31T16:56:00;20.20;99.90
21267;DHT22;10791;53.108;18.326;2023-07-31T17:01:05;20.70;99.90
21267;DHT22;10791;53.108;18.326;2023-07-31T17:06:08;21.30;99.90
21267;DHT22;10791;53.108;18.326;2023-07-31T17:11:12;21.20;99.90
21267;DHT22;10791;53.108;18.326;2023-07-31T17:16:16;21.00;99.90
21267;DHT22;10791;53.108;18.326;2023-07-31T17:21:20;21.00;99.90
21267;DHT22;10791;53.108;18.326;2023-07-31T17:26:23;20.90;99.90
21267;DHT22;10791;53.108;18.326;2023-07-31T17:31:27;20.80;99.90
21267;DHT22;10791;53.108;18.326;2023-07-31T17:36:31;20.70;99.90
21267;DHT22;10791;53.108;18.326;2023-07-31T17:41:35;20.50;99.90
21267;DHT22;10791;53.108;18.326;2023-07-31T17:46:39;20.30;99.90
21267;DHT22;10791;53.108;18.326;2023-07-31T17:51:43;20.30;99.90
21267;DHT22;10791;53.108;18.326;2023-07-31T17:56:47;20.20;99.90
21267;DHT22;10791;53.108;18.326;2023-07-31T18:01:50;20.10;99.90
21267;DHT22;10791;53.108;18.326;2023-07-31T18:06:54;20.00;99.90
21267;DHT22;10791;53.108;18.326;2023-07-31T18:11:58;20.00;99.90
21267;DHT22;10791;53.108;18.326;2023-07-31T18:17:02;19.90;99.90
21267;DHT22;10791;53.108;18.326;2023-07-31T18:22:08;19.90;99.90
21267;DHT22;10791;53.108;18.326;2023-07-31T18:27:12;19.90;99.90
21267;DHT22;10791;53.108;18.326;2023-07-31T18:32:17;19.80;99.90
21267;DHT22;10791;53.108;18.326;2023-07-31T18:37:21;19.70;99.90
21267;DHT22;10791;53.108;18.326;2023-07-31T18:42:26;19.70;99.90
21267;DHT22;10791;53.108;18.326;2023-07-31T18:47:30;19.60;99.90
21267;DHT22;10791;53.108;18.326;2023-07-31T18:52:34;19.50;99.90
21267;DHT22;10791;53.108;18.326;2023-07-31T18:57:37;19.50;99.90
21267;DHT22;10791;53.108;18.326;2023-07-31T19:02:40;19.50;99.90
21267;DHT22;10791;53.108;18.326;2023-07-31T19:07:45;19.50;99.90
21267;DHT22;10791;53.108;18.326;2023-07-31T19:12:50;19.40;99.90
21267;DHT22;10791;53.108;18.326;2023-07-31T19:17:54;19.40;99.90
21267;DHT22;10791;53.108;18.326;2023-07-31T19:22:58;19.40;99.90
21267;DHT22;10791;53.108;18.326;2023-07-31T19:28:02;19.40;99.90
21267;DHT22;10791;53.108;18.326;2023-07-31T19:33:07;19.40;99.90
21267;DHT22;10791;53.108;18.326;2023-07-31T19:38:11;19.30;99.90
21267;DHT22;10791;53.108;18.326;2023-07-31T19:43:15;19.30;99.90
21267;DHT22;10791;53.108;18.326;2023-07-31T19:48:19;19.20;99.90
21267;DHT22;10791;53.108;18.326;2023-07-31T19:53:24;19.30;99.90
21267;DHT22;10791;53.108;18.326;2023-07-31T19:58:28;19.20;99.90
21267;DHT22;10791;53.108;18.326;2023-07-31T20:03:33;19.20;99.90
21267;DHT22;10791;53.108;18.326;2023-07-31T20:08:37;19.20;99.90
21267;DHT22;10791;53.108;18.326;2023-07-31T20:13:41;19.10;99.90
21267;DHT22;10791;53.108;18.326;2023-07-31T20:18:46;19.00;99.90
21267;DHT22;10791;53.108;18.326;2023-07-31T20:23:50;19.00;99.90
21267;DHT22;10791;53.108;18.326;2023-07-31T20:28:54;19.00;99.90
21267;DHT22;10791;53.108;18.326;2023-07-31T20:33:58;18.90;99.90
21267;DHT22;10791;53.108;18.326;2023-07-31T20:39:03;18.90;99.90
21267;DHT22;10791;53.108;18.326;2023-07-31T20:44:08;18.90;99.90
21267;DHT22;10791;53.108;18.326;2023-07-31T20:49:12;18.80;99.90
21267;DHT22;10791;53.108;18.326;2023-07-31T20:54:16;18.70;99.90
21267;DHT22;10791;53.108;18.326;2023-07-31T20:59:20;18.80;99.90
21267;DHT22;10791;53.108;18.326;2023-07-31T21:04:24;18.70;99.90
21267;DHT22;10791;53.108;18.326;2023-07-31T21:09:29;18.80;99.90
21267;DHT22;10791;53.108;18.326;2023-07-31T21:14:33;18.80;99.90
21267;DHT22;10791;53.108;18.326;2023-07-31T21:19:36;18.80;99.90
21267;DHT22;10791;53.108;18.326;2023-07-31T21:24:40;18.80;99.90
21267;DHT22;10791;53.108;18.326;2023-07-31T21:29:44;18.80;99.90
21267;DHT22;10791;53.108;18.326;2023-07-31T21:34:51;18.80;99.90
21267;DHT22;10791;53.108;18.326;2023-07-31T21:39:58;18.80;99.90
21267;DHT22;10791;53.108;18.326;2023-07-31T21:45:01;18.80;99.90
21267;DHT22;10791;53.108;18.326;2023-07-31T21:50:07;18.80;99.90
21267;DHT22;10791;53.108;18.326;2023-07-31T21:55:11;18.80;99.90
21267;DHT22;10791;53.108;18.326;2023-07-31T22:00:14;18.80;99.90
21267;DHT22;10791;53.108;18.326;2023-07-31T22:05:21;18.80;99.90
21267;DHT22;10791;53.108;18.326;2023-07-31T22:10:25;18.90;99.90
21267;DHT22;10791;53.108;18.326;2023-07-31T22:15:28;18.90;99.90
21267;DHT22;10791;53.108;18.326;2023-07-31T22:20:32;18.90;99.90
21267;DHT22;10791;53.108;18.326;2023-07-31T22:25:35;18.90;99.90
21267;DHT22;10791;53.108;18.326;2023-07-31T22:30:38;19.00;99.90
21267;DHT22;10791;53.108;18.326;2023-07-31T22:35:42;19.00;99.90
21267;DHT22;10791;53.108;18.326;2023-07-31T22:40:45;19.00;99.90
21267;DHT22;10791;53.108;18.326;2023-07-31T22:45:49;19.00;99.90
21267;DHT22;10791;53.108;18.326;2023-07-31T22:50:52;19.10;99.90
21267;DHT22;10791;53.108;18.326;2023-07-31T22:55:55;19.20;99.90
21267;DHT22;10791;53.108;18.326;2023-07-31T23:01:07;19.10;99.90
21267;DHT22;10791;53.108;18.326;2023-07-31T23:06:10;19.10;99.90
21267;DHT22;10791;53.108;18.326;2023-07-31T23:11:14;19.20;99.90
21267;DHT22;10791;53.108;18.326;2023-07-31T23:16:17;19.20;99.90
21267;DHT22;10791;53.108;18.326;2023-07-31T23:21:20;19.30;99.90
21267;DHT22;10791;53.108;18.326;2023-07-31T23:26:23;19.30;99.90
21267;DHT22;10791;53.108;18.326;2023-07-31T23:31:27;19.30;99.90
21267;DHT22;10791;53.108;18.326;2023-07-31T23:36:30;19.30;99.90
21267;DHT22;10791;53.108;18.326;2023-07-31T23:41:33;19.30;99.90
21267;DHT22;10791;53.108;18.326;2023-07-31T23:46:36;19.50;99.90
21267;DHT22;10791;53.108;18.326;2023-07-31T23:51:44;19.40;99.90
21267;DHT22;10791;53.108;18.326;2023-07-31T23:56:48;19.50;99.90
